Time;durP1;ratioP1;P1;durP2;ratioP2;P2;SDS_P1;SDS_P2;PMS_P1;PMS_P2;Temp;Humidity;BMP_temperature;BMP_pressure;BME280_temperature;BME280_humidity;BME280_pressure;Samples;Min_cycle;Max_cycle;Signal;HPM_P1;HPM_P2
2021/10/03 00:01:11;;;;;;;0.00;0.00;;;;;;;9.98;55.12;99811.72;5032453;28;20026;-76
2021/10/03 00:03:43;;;;;;;0.00;0.00;;;;;;;9.93;55.01;99810.59;5032272;28;20491;-80
2021/10/03 00:06:11;;;;;;;0.00;0.00;;;;;;;9.93;54.78;99820.50;5030991;28;20029;-81
2021/10/03 00:08:37;;;;;;;0.00;0.00;;;;;;;9.90;55.12;99815.66;5031196;28;20122;-82
2021/10/03 00:11:03;;;;;;;0.00;0.00;;;;;;;9.89;54.93;99817.50;5030868;28;20052;-81
2021/10/03 00:13:28;;;;;;;0.10;0.10;;;;;;;9.83;54.76;99809.72;5031486;28;20138;-76
2021/10/03 00:15:55;;;;;;;0.00;0.00;;;;;;;9.86;54.84;99812.69;5032319;28;20116;-80
2021/10/03 00:18:22;;;;;;;0.10;0.10;;;;;;;9.83;54.43;99807.03;5031107;28;20029;-82
2021/10/03 00:20:48;;;;;;;0.10;0.10;;;;;;;9.82;54.55;99810.78;5031068;28;20045;-83
2021/10/03 00:23:14;;;;;;;0.10;0.10;;;;;;;9.83;54.40;99817.72;5032661;28;20025;-88
2021/10/03 00:25:42;;;;;;;0.00;0.00;;;;;;;9.77;54.46;99812.31;5034653;28;20092;-93
2021/10/03 00:28:11;;;;;;;0.00;0.00;;;;;;;9.72;54.09;99808.81;5035085;28;20049;-90
2021/10/03 00:30:39;;;;;;;0.10;0.10;;;;;;;9.69;54.31;99803.94;5031900;28;20021;-88
2021/10/03 00:33:06;;;;;;;0.00;0.00;;;;;;;9.66;54.70;99804.47;5031019;28;20087;-88
2021/10/03 00:35:34;;;;;;;0.00;0.00;;;;;;;9.61;54.51;99806.00;5030958;28;20123;-88
2021/10/03 00:38:04;;;;;;;0.10;0.10;;;;;;;9.58;54.59;99805.69;5031049;28;20032;-91
2021/10/03 00:40:35;;;;;;;0.00;0.00;;;;;;;9.55;54.66;99804.34;5030969;28;20032;-86
2021/10/03 00:43:01;;;;;;;0.05;0.05;;;;;;;9.53;54.56;99805.66;5030464;28;20025;-84
2021/10/03 00:45:29;;;;;;;0.10;0.10;;;;;;;9.49;54.48;99805.34;5030535;28;20120;-85
2021/10/03 00:47:55;;;;;;;0.10;0.10;;;;;;;9.47;54.62;99801.31;5030649;28;20030;-84
2021/10/03 00:50:21;;;;;;;0.00;0.00;;;;;;;9.44;54.76;99798.06;5030321;28;20507;-79
2021/10/03 00:52:48;;;;;;;0.10;0.10;;;;;;;9.40;54.66;99791.63;5030430;28;20112;-82
2021/10/03 00:55:14;;;;;;;0.00;0.00;;;;;;;9.39;54.44;99795.34;5031256;28;20468;-80
2021/10/03 00:57:42;;;;;;;0.00;0.00;;;;;;;9.37;54.71;99797.44;5029949;28;20036;-82
2021/10/03 01:00:09;;;;;;;0.00;0.00;;;;;;;9.33;54.75;99796.34;5030097;28;20427;-85
2021/10/03 01:02:35;;;;;;;0.00;0.00;;;;;;;9.31;54.93;99797.66;5030470;28;20440;-85
2021/10/03 01:05:00;;;;;;;0.00;0.00;;;;;;;9.30;54.94;99799.50;5029947;28;20056;-84
2021/10/03 01:07:26;;;;;;;0.00;0.00;;;;;;;9.28;55.09;99801.63;5030248;28;20021;-85
2021/10/03 01:09:52;;;;;;;0.00;0.00;;;;;;;9.28;54.75;99798.97;5030166;28;20064;-85
2021/10/03 01:12:17;;;;;;;0.10;0.10;;;;;;;9.24;55.04;99792.50;5029972;28;20083;-84
2021/10/03 01:14:42;;;;;;;0.00;0.00;;;;;;;9.22;54.89;99795.41;5030102;28;20045;-81
2021/10/03 01:17:08;;;;;;;0.28;0.28;;;;;;;9.20;55.05;99792.19;5029797;28;20025;-80
2021/10/03 01:19:35;;;;;;;0.00;0.00;;;;;;;9.17;55.04;99790.03;5029916;28;20115;-78
2021/10/03 01:22:01;;;;;;;0.00;0.00;;;;;;;9.15;55.07;99786.78;5029907;28;20121;-81
2021/10/03 01:24:29;;;;;;;0.00;0.00;;;;;;;9.13;55.37;99789.72;5029955;28;20025;-80
2021/10/03 01:26:55;;;;;;;;;;;;;;;9.12;55.50;99784.63;5030497;28;20104;-80
2021/10/03 01:29:20;;;;;;;0.00;0.00;;;;;;;9.11;55.05;99791.00;5029740;28;19951;-83
2021/10/03 01:31:46;;;;;;;0.10;0.10;;;;;;;9.06;55.43;99789.09;5029905;28;20669;-83
2021/10/03 01:34:12;;;;;;;0.00;0.00;;;;;;;9.03;55.50;99784.22;5029795;28;20022;-82
2021/10/03 01:36:37;;;;;;;0.00;0.00;;;;;;;9.04;55.85;99795.72;5029987;28;20477;-82
2021/10/03 01:39:03;;;;;;;0.00;0.00;;;;;;;9.00;56.00;99786.63;5029676;28;20033;-83
2021/10/03 01:41:29;;;;;;;0.00;0.00;;;;;;;8.97;55.49;99780.72;5029863;28;20473;-80
2021/10/03 01:43:54;;;;;;;0.00;0.00;;;;;;;8.92;55.75;99782.50;5029848;28;20107;-78
2021/10/03 01:46:20;;;;;;;0.10;0.10;;;;;;;8.97;56.11;99787.88;5029495;28;20017;-81
2021/10/03 01:48:46;;;;;;;0.10;0.10;;;;;;;8.93;56.27;99787.56;5029740;28;20027;-80
2021/10/03 01:51:12;;;;;;;0.10;0.10;;;;;;;8.91;55.95;99789.69;5029491;28;20021;-81
2021/10/03 01:53:51;;;;;;;0.10;0.10;;;;;;;8.91;56.22;99786.22;5029790;28;20025;-80
2021/10/03 01:56:18;;;;;;;0.00;0.00;;;;;;;8.89;56.23;99783.00;5029675;28;20028;-79
2021/10/03 01:58:48;;;;;;;0.00;0.00;;;;;;;8.89;56.52;99788.34;5030445;28;20025;-83
2021/10/03 02:01:20;;;;;;;0.00;0.00;;;;;;;8.87;56.38;99793.09;5031769;28;20388;-85
2021/10/03 02:03:46;;;;;;;0.00;0.00;;;;;;;8.82;56.46;99788.50;5031130;28;20021;-81
2021/10/03 02:06:12;;;;;;;0.00;0.00;;;;;;;8.77;56.63;99783.88;5029680;28;20388;-81
2021/10/03 02:08:37;;;;;;;0.00;0.00;;;;;;;8.79;56.54;99797.00;5029748;28;20018;-79
2021/10/03 02:11:03;;;;;;;0.00;0.00;;;;;;;8.78;56.86;99782.06;5033269;28;20480;-84
2021/10/03 02:13:29;;;;;;;0.00;0.00;;;;;;;8.74;56.32;99780.91;5033588;28;20029;-79
2021/10/03 02:15:54;;;;;;;0.00;0.00;;;;;;;8.72;57.10;99777.69;5034461;28;20033;-81
2021/10/03 02:18:21;;;;;;;0.00;0.00;;;;;;;8.69;56.97;99778.19;5036132;28;20083;-82
2021/10/03 02:20:52;;;;;;;0.35;0.35;;;;;;;8.65;57.37;99778.69;5033693;28;20042;-81
2021/10/03 02:23:18;;;;;;;0.00;0.00;;;;;;;8.61;57.77;99777.53;5033036;28;20021;-78
2021/10/03 02:25:43;;;;;;;0.00;0.00;;;;;;;8.57;57.37;99773.75;5034196;28;20136;-78
2021/10/03 02:28:21;;;;;;;0.05;0.05;;;;;;;8.56;57.70;99780.13;5032960;28;20056;-79
2021/10/03 02:30:48;;;;;;;0.00;0.00;;;;;;;8.53;57.55;99782.47;5033287;28;20021;-81
2021/10/03 02:33:14;;;;;;;0.00;0.00;;;;;;;8.52;57.77;99780.88;5033134;28;20511;-80
2021/10/03 02:35:41;;;;;;;0.00;0.00;;;;;;;8.49;57.74;99784.81;5033455;28;20025;-81
2021/10/03 02:38:12;;;;;;;0.00;0.00;;;;;;;8.45;58.26;99778.34;5033122;28;20029;-80
2021/10/03 02:40:39;;;;;;;0.00;0.00;;;;;;;8.43;58.02;99791.09;5033797;28;20028;-80
2021/10/03 02:43:06;;;;;;;0.00;0.00;;;;;;;8.42;58.31;99776.97;5033768;28;20468;-81
2021/10/03 02:45:38;;;;;;;0.00;0.00;;;;;;;8.39;58.49;99780.13;5032784;28;20030;-79
2021/10/03 02:48:04;;;;;;;0.00;0.00;;;;;;;8.37;58.63;99779.53;5033462;28;20037;-80
2021/10/03 02:50:36;;;;;;;0.08;0.08;;;;;;;8.36;58.76;99785.13;5033454;28;20025;-85
2021/10/03 02:53:05;;;;;;;0.00;0.00;;;;;;;8.35;58.59;99784.34;5033284;28;20029;-80
2021/10/03 02:55:34;;;;;;;0.00;0.00;;;;;;;8.33;59.04;99789.09;5033277;28;20025;-80
2021/10/03 02:57:59;;;;;;;0.00;0.00;;;;;;;8.31;58.74;99784.00;5032708;28;20018;-80
2021/10/03 03:00:25;;;;;;;0.00;0.00;;;;;;;8.34;58.97;99793.38;5033029;28;20025;-78
2021/10/03 03:02:50;;;;;;;0.00;0.00;;;;;;;8.31;59.34;99780.50;5033191;28;20420;-78
2021/10/03 03:05:15;;;;;;;0.00;0.00;;;;;;;8.31;59.24;99791.19;5032687;28;20121;-79
2021/10/03 03:07:41;;;;;;;0.00;0.00;;;;;;;8.30;59.50;99782.38;5032965;28;20397;-79
2021/10/03 03:10:08;;;;;;;0.00;0.00;;;;;;;8.29;59.26;99780.75;5032933;28;20025;-80
2021/10/03 03:12:35;;;;;;;0.00;0.00;;;;;;;8.29;59.70;99779.97;5033511;28;20087;-79
2021/10/03 03:15:06;;;;;;;0.05;0.05;;;;;;;8.26;59.81;99785.78;5035334;28;20544;-80
2021/10/03 03:17:31;;;;;;;0.00;0.00;;;;;;;8.24;59.77;99787.88;5033358;28;20025;-80
2021/10/03 03:19:57;;;;;;;0.10;0.10;;;;;;;8.22;60.09;99790.78;5034499;28;20545;-79
2021/10/03 03:22:47;;;;;;;0.10;0.10;;;;;;;8.22;59.90;99793.44;5035124;28;20430;-86
2021/10/03 03:25:16;;;;;;;0.00;0.00;;;;;;;8.21;59.80;99788.38;5034934;28;20033;-82
2021/10/03 03:27:42;;;;;;;0.00;0.00;;;;;;;8.20;60.15;99800.06;5033660;28;20025;-81
2021/10/03 03:30:09;;;;;;;0.00;0.00;;;;;;;8.20;60.63;99792.06;5033855;28;20036;-80
2021/10/03 03:32:34;;;;;;;0.10;0.10;;;;;;;8.18;60.61;99793.13;5032719;28;20025;-80
2021/10/03 03:35:00;;;;;;;0.00;0.00;;;;;;;8.15;60.58;99787.47;5033301;28;20029;-80
2021/10/03 03:37:26;;;;;;;0.00;0.00;;;;;;;8.10;60.47;99788.19;5032432;28;20480;-80
2021/10/03 03:39:51;;;;;;;0.00;0.00;;;;;;;8.10;60.86;99795.38;5032985;28;20025;-81
2021/10/03 03:42:17;;;;;;;0.00;0.00;;;;;;;8.09;60.85;99799.91;5032636;28;20513;-81
2021/10/03 03:44:42;;;;;;;0.00;0.00;;;;;;;8.10;60.51;99801.50;5034681;28;20021;-81
2021/10/03 03:47:08;;;;;;;0.00;0.00;;;;;;;8.08;60.99;99806.28;5033213;28;20030;-79
2021/10/03 03:49:38;;;;;;;0.00;0.00;;;;;;;8.05;61.42;99804.09;5033159;28;20028;-84
2021/10/03 03:55:32;;;;;;;0.00;0.00;;;;;;;8.01;61.01;99803.75;5034338;28;20104;-85
2021/10/03 03:57:57;;;;;;;0.00;0.00;;;;;;;7.97;61.55;99801.81;5032539;28;20026;-84
2021/10/03 04:00:54;;;;;;;0.00;0.00;;;;;;;7.94;61.54;99807.63;5032875;28;20029;-84
2021/10/03 04:04:13;;;;;;;0.00;0.00;;;;;;;7.95;61.17;99811.91;5034541;28;20021;-83
2021/10/03 04:25:23;;;;;;;0.00;0.00;;;;;;;7.81;61.71;99811.38;4986182;23;20079;-84
2021/10/03 04:29:06;;;;;;;0.10;0.10;;;;;;;7.90;62.00;99809.13;4923293;29;20058;-85
2021/10/03 04:31:38;;;;;;;0.00;0.00;;;;;;;7.99;61.76;99813.84;4918242;29;20047;-80
2021/10/03 04:34:04;;;;;;;0.00;0.00;;;;;;;8.10;61.47;99814.81;4933877;29;20494;-79
2021/10/03 04:36:30;;;;;;;0.00;0.00;;;;;;;8.26;61.52;99815.09;4935259;29;20070;-81
2021/10/03 04:38:56;;;;;;;0.00;0.00;;;;;;;8.43;60.87;99820.41;4918621;29;20472;-84
2021/10/03 04:41:21;;;;;;;0.00;0.00;;;;;;;8.61;60.20;99822.88;4917738;29;20023;-85
2021/10/03 04:43:47;;;;;;;0.03;0.03;;;;;;;8.81;60.16;99821.56;4933475;29;20483;-84
2021/10/03 04:46:12;;;;;;;0.10;0.10;;;;;;;9.01;59.74;99822.88;4917326;29;20027;-85
2021/10/03 04:48:38;;;;;;;0.08;0.08;;;;;;;9.23;59.15;99828.25;4917460;29;20031;-83
2021/10/03 04:51:04;;;;;;;0.05;0.05;;;;;;;9.48;58.25;99827.75;4917756;29;20049;-89
2021/10/03 04:53:29;;;;;;;0.00;0.00;;;;;;;9.70;57.97;99826.94;4917363;29;20047;-87
2021/10/03 04:55:55;;;;;;;0.00;0.00;;;;;;;9.97;57.31;99826.13;4933101;29;20024;-82
2021/10/03 04:58:20;;;;;;;0.10;0.10;;;;;;;10.22;56.71;99831.72;4917171;29;20115;-83
2021/10/03 05:00:46;;;;;;;0.00;0.00;;;;;;;10.49;56.48;99822.06;4917301;29;20038;-84
2021/10/03 05:03:11;;;;;;;0.10;0.10;;;;;;;10.75;55.58;99822.25;4917180;29;20031;-85
2021/10/03 05:05:37;;;;;;;0.00;0.00;;;;;;;10.99;54.98;99825.34;4917002;29;20487;-86
2021/10/03 05:08:03;;;;;;;0.10;0.10;;;;;;;11.26;54.36;99833.22;4917249;29;20022;-83
2021/10/03 05:10:28;;;;;;;0.00;0.00;;;;;;;11.50;54.30;99827.44;4916949;29;20057;-85
2021/10/03 05:12:54;;;;;;;0.00;0.00;;;;;;;11.73;53.24;99826.19;4917202;29;20467;-81
2021/10/03 05:15:20;;;;;;;0.10;0.10;;;;;;;11.95;52.70;99827.81;4917142;29;20039;-82
2021/10/03 05:17:45;;;;;;;0.00;0.00;;;;;;;12.17;52.35;99830.31;4917249;29;20114;-82
2021/10/03 05:20:11;;;;;;;0.08;0.08;;;;;;;12.42;51.50;99834.06;4932920;29;20024;-82
2021/10/03 05:22:36;;;;;;;0.00;0.00;;;;;;;12.61;51.10;99840.50;4916573;29;20052;-79
2021/10/03 05:25:03;;;;;;;1.13;0.85;;;;;;;12.80;50.48;99845.28;4916971;29;20078;-76
2021/10/03 05:27:29;;;;;;;0.00;0.00;;;;;;;13.01;50.11;99843.38;4933469;29;20038;-79
2021/10/03 05:29:54;;;;;;;0.20;0.20;;;;;;;13.15;49.59;99848.19;4916949;29;20031;-79
2021/10/03 05:32:20;;;;;;;0.10;0.10;;;;;;;13.31;49.25;99851.63;4916739;29;20115;-79
2021/10/03 05:34:45;;;;;;;0.10;0.10;;;;;;;13.48;48.92;99848.63;4917007;29;20135;-80
2021/10/03 05:37:10;;;;;;;0.05;0.05;;;;;;;13.64;48.48;99844.78;4916888;29;20054;-81
2021/10/03 05:39:36;;;;;;;0.10;0.10;;;;;;;13.80;48.29;99844.72;4932266;29;20028;-80
2021/10/03 05:42:01;;;;;;;0.00;0.00;;;;;;;13.96;48.11;99848.13;4932661;29;20027;-81
2021/10/03 05:44:27;;;;;;;0.10;0.10;;;;;;;14.06;47.89;99851.53;4919689;29;20058;-89
2021/10/03 05:46:52;;;;;;;0.10;0.10;;;;;;;14.16;47.38;99853.34;4920618;29;20050;-89
2021/10/03 05:49:18;;;;;;;0.00;0.00;;;;;;;14.24;47.15;99849.25;4921036;29;20122;-88
2021/10/03 05:51:43;;;;;;;0.03;0.03;;;;;;;14.33;47.26;99847.59;4936311;29;20034;-78
2021/10/03 05:54:09;;;;;;;0.00;0.00;;;;;;;14.45;46.88;99841.03;4920459;29;20026;-78
2021/10/03 05:56:35;;;;;;;0.10;0.10;;;;;;;14.58;46.62;99846.56;4920426;29;20534;-78
2021/10/03 05:59:02;;;;;;;0.10;0.10;;;;;;;14.69;46.87;99854.59;4902720;29;20035;-77
2021/10/03 06:01:30;;;;;;;0.05;0.05;;;;;;;14.81;46.46;99857.69;4930755;29;20475;-77
2021/10/03 06:03:56;;;;;;;;;;;;;;;14.93;46.41;99861.88;4920462;29;20066;-77
2021/10/03 06:06:22;;;;;;;0.00;0.00;;;;;;;15.00;46.42;99857.78;4951149;29;19946;-77
2021/10/03 06:08:47;;;;;;;0.10;0.10;;;;;;;15.11;46.55;99861.19;4929691;29;20024;-77
2021/10/03 06:11:13;;;;;;;0.00;0.00;;;;;;;15.19;46.45;99854.34;4936703;29;20361;-78
2021/10/03 06:13:40;;;;;;;0.00;0.00;;;;;;;15.32;46.30;99864.44;4903019;29;20456;-79
2021/10/03 06:16:06;;;;;;;0.10;0.10;;;;;;;15.41;46.13;99863.81;4901218;29;20028;-76
2021/10/03 06:18:31;;;;;;;0.10;0.10;;;;;;;15.53;45.97;99862.28;4927543;29;20019;-77
2021/10/03 06:20:56;;;;;;;0.00;0.00;;;;;;;15.58;45.83;99866.03;4919551;29;20095;-79
2021/10/03 06:23:22;;;;;;;0.10;0.10;;;;;;;15.68;45.02;99865.88;4917333;29;20031;-78
2021/10/03 06:25:47;;;;;;;0.10;0.10;;;;;;;15.75;44.97;99863.63;4919457;29;20035;-76
2021/10/03 06:28:13;;;;;;;0.10;0.10;;;;;;;15.79;44.56;99861.16;4919775;29;20119;-77
2021/10/03 06:30:38;;;;;;;0.10;0.10;;;;;;;15.82;44.55;99863.28;4918305;29;20550;-75
2021/10/03 06:33:04;;;;;;;0.45;0.45;;;;;;;15.84;44.67;99850.31;4919817;29;20023;-74
2021/10/03 06:35:30;;;;;;;0.00;0.00;;;;;;;15.95;44.58;99870.69;4936704;29;20024;-76
2021/10/03 06:37:56;;;;;;;0.10;0.10;;;;;;;16.04;44.58;99867.31;4919292;29;20039;-76
2021/10/03 06:40:22;;;;;;;0.00;0.00;;;;;;;16.17;44.11;99869.28;4935653;29;20034;-76
2021/10/03 06:42:48;;;;;;;0.10;0.10;;;;;;;16.26;43.77;99855.91;4925879;29;20123;-75
2021/10/03 06:45:13;;;;;;;0.10;0.10;;;;;;;16.34;43.17;99860.66;4932638;29;20028;-76
2021/10/03 06:47:39;;;;;;;0.43;0.43;;;;;;;16.40;43.38;99864.06;4919173;29;20023;-75
2021/10/03 06:50:06;;;;;;;0.10;0.10;;;;;;;16.49;42.96;99863.09;4915821;29;20388;-75
2021/10/03 06:52:31;;;;;;;0.10;0.10;;;;;;;16.48;42.93;99860.72;4930223;29;20028;-76
2021/10/03 06:54:57;;;;;;;0.00;0.00;;;;;;;16.52;42.90;99866.31;4931501;29;20031;-76
2021/10/03 06:57:22;;;;;;;0.10;0.10;;;;;;;16.44;42.97;99875.88;4924702;29;20039;-79
2021/10/03 06:59:48;;;;;;;0.13;0.13;;;;;;;16.35;43.48;99877.66;4918888;29;20030;-79
2021/10/03 07:02:20;;;;;;;1.17;0.80;;;;;;;16.25;43.47;99879.41;4918325;29;20031;-77
2021/10/03 07:04:46;;;;;;;0.10;0.10;;;;;;;16.15;43.46;99882.28;4919268;29;20035;-76
2021/10/03 07:07:11;;;;;;;0.30;0.30;;;;;;;15.88;43.79;99881.03;4919362;29;20419;-79
2021/10/03 07:09:37;;;;;;;0.10;0.10;;;;;;;15.64;44.23;99876.44;4919057;29;20034;-79
2021/10/03 07:12:03;;;;;;;0.15;0.15;;;;;;;15.48;44.75;99878.53;4918791;29;20034;-80
2021/10/03 07:14:28;;;;;;;0.40;0.40;;;;;;;15.36;45.13;99881.63;4918437;29;20040;-81
2021/10/03 07:16:53;;;;;;;0.10;0.10;;;;;;;15.26;45.19;99884.44;4918339;29;20037;-81
2021/10/03 07:19:19;;;;;;;0.20;0.20;;;;;;;15.18;45.65;99885.06;4918593;29;20439;-78
2021/10/03 07:21:44;;;;;;;0.00;0.00;;;;;;;15.09;45.98;99882.19;4918249;29;20127;-77
2021/10/03 07:24:10;;;;;;;0.10;0.10;;;;;;;15.08;46.72;99880.59;4917880;29;20051;-77
2021/10/03 07:26:36;;;;;;;0.10;0.10;;;;;;;15.10;46.41;99883.81;4929205;29;20026;-76
2021/10/03 07:29:03;;;;;;;0.68;0.68;;;;;;;15.13;46.43;99885.91;4918168;29;20123;-78
2021/10/03 07:31:29;;;;;;;0.70;0.70;;;;;;;15.18;46.05;99885.06;4935971;29;20035;-78
2021/10/03 07:33:55;;;;;;;0.25;0.25;;;;;;;15.18;46.35;99882.38;4921685;29;20036;-76
2021/10/03 07:36:20;;;;;;;0.10;0.10;;;;;;;15.31;46.42;99878.22;4934551;29;20391;-77
2021/10/03 07:38:49;;;;;;;0.10;0.10;;;;;;;15.44;46.03;99882.09;4920482;29;20368;-77
2021/10/03 07:41:16;;;;;;;0.10;0.10;;;;;;;15.58;45.83;99874.13;4919508;29;20055;-77
2021/10/03 07:43:43;;;;;;;0.10;0.10;;;;;;;15.77;45.98;99888.44;4938578;29;20099;-78
2021/10/03 07:46:09;;;;;;;0.00;0.00;;;;;;;15.87;45.17;99886.69;4905738;29;20055;-79
2021/10/03 07:48:35;;;;;;;0.10;0.10;;;;;;;16.00;45.35;99884.09;4917078;29;20044;-81
2021/10/03 07:51:00;;;;;;;0.10;0.10;;;;;;;16.16;45.25;99887.38;4918118;29;20023;-80
2021/10/03 07:53:26;;;;;;;0.10;0.10;;;;;;;16.29;45.34;99877.72;4916925;29;20061;-80
2021/10/03 07:55:52;;;;;;;0.10;0.10;;;;;;;16.41;44.59;99871.88;4918057;29;20028;-79
2021/10/03 07:58:19;;;;;;;0.00;0.00;;;;;;;16.49;44.50;99871.22;4917861;29;20031;-80
2021/10/03 08:00:44;;;;;;;0.10;0.10;;;;;;;16.54;44.42;99867.63;4917068;29;20023;-79
2021/10/03 08:03:10;;;;;;;0.10;0.10;;;;;;;16.58;43.51;99867.84;4934415;29;20034;-79
2021/10/03 08:05:36;;;;;;;0.30;0.30;;;;;;;16.57;43.65;99866.22;4913096;29;20466;-80
2021/10/03 08:08:04;;;;;;;0.10;0.10;;;;;;;16.57;43.85;99864.31;4911952;29;20036;-79
2021/10/03 08:10:31;;;;;;;0.25;0.25;;;;;;;16.59;44.04;99867.53;4917501;29;20400;-80
2021/10/03 08:12:57;;;;;;;0.30;0.30;;;;;;;16.65;43.88;99869.06;4917040;29;20096;-77
2021/10/03 08:15:27;;;;;;;0.10;0.10;;;;;;;16.71;43.71;99866.25;4917055;29;20456;-77
2021/10/03 08:17:53;;;;;;;0.10;0.10;;;;;;;16.78;43.66;99869.38;4934156;29;20035;-78
2021/10/03 08:20:18;;;;;;;0.20;0.20;;;;;;;16.81;43.76;99864.19;4917486;29;20471;-76
2021/10/03 08:22:46;;;;;;;0.10;0.10;;;;;;;16.87;42.95;99869.47;4912488;29;20051;-77
2021/10/03 08:25:11;;;;;;;0.10;0.10;;;;;;;16.85;42.41;99871.69;4916873;29;20118;-77
2021/10/03 08:27:37;;;;;;;0.10;0.10;;;;;;;16.83;42.62;99869.28;4916810;29;20118;-78
2021/10/03 08:30:05;;;;;;;0.10;0.10;;;;;;;16.73;42.61;99864.84;4916758;29;20039;-77
2021/10/03 08:32:31;;;;;;;0.05;0.05;;;;;;;16.67;42.67;99866.03;4917210;29;20033;-78
2021/10/03 08:34:57;;;;;;;0.20;0.20;;;;;;;16.65;42.97;99870.97;4918093;29;20039;-77
2021/10/03 08:37:23;;;;;;;0.43;0.43;;;;;;;16.67;43.47;99868.75;4918281;29;20035;-77
2021/10/03 08:39:49;;;;;;;0.60;0.45;;;;;;;16.75;43.10;99873.47;4921257;29;20032;-77
2021/10/03 08:42:14;;;;;;;0.43;0.43;;;;;;;16.80;42.88;99875.28;4917064;29;20027;-79
2021/10/03 08:44:41;;;;;;;0.10;0.10;;;;;;;16.88;42.95;99873.78;4919405;29;20054;-81
2021/10/03 08:47:13;;;;;;;0.10;0.10;;;;;;;16.93;42.47;99871.84;4920634;29;20391;-77
2021/10/03 08:49:43;;;;;;;0.25;0.25;;;;;;;16.92;41.82;99866.75;4920846;29;20027;-77
2021/10/03 08:52:14;;;;;;;0.10;0.10;;;;;;;16.95;42.40;99879.63;4916317;29;20088;-78
2021/10/03 08:54:40;;;;;;;0.00;0.00;;;;;;;16.95;41.63;99871.53;4909197;29;20031;-77
2021/10/03 08:57:07;;;;;;;0.10;0.10;;;;;;;16.96;41.41;99855.03;4917710;29;20030;-80
2021/10/03 08:59:34;;;;;;;4.68;0.60;;;;;;;17.01;41.79;99854.13;4916296;29;20052;-77
2021/10/03 09:02:03;;;;;;;0.95;0.25;;;;;;;17.06;41.61;99856.72;4913068;29;20038;-77
2021/10/03 09:04:35;;;;;;;0.05;0.05;;;;;;;17.11;40.40;99856.66;4917355;29;20023;-85
2021/10/03 09:07:13;;;;;;;0.10;0.10;;;;;;;17.07;40.25;99855.63;4917150;29;20127;-82
2021/10/03 09:09:55;;;;;;;0.00;0.00;;;;;;;17.08;40.04;99859.16;4916551;29;20027;-88
2021/10/03 09:12:29;;;;;;;0.13;0.13;;;;;;;17.07;40.46;99854.84;4916953;29;20063;-78
2021/10/03 09:14:56;;;;;;;0.20;0.20;;;;;;;17.14;41.42;99857.94;4917012;29;20020;-84
2021/10/03 09:17:22;;;;;;;0.10;0.10;;;;;;;17.20;40.87;99848.66;4916882;29;20122;-83
2021/10/03 09:20:06;;;;;;;0.00;0.00;;;;;;;17.26;40.01;99852.06;4916636;29;20483;-82
2021/10/03 09:22:31;;;;;;;0.10;0.10;;;;;;;17.20;39.66;99845.13;4916462;29;20471;-83
2021/10/03 09:24:59;;;;;;;0.30;0.30;;;;;;;17.22;39.85;99848.34;4916449;29;20035;-84
2021/10/03 09:27:45;;;;;;;0.30;0.30;;;;;;;17.26;39.74;99855.56;4917055;29;20500;-85
2021/10/03 09:30:10;;;;;;;0.10;0.10;;;;;;;17.17;39.15;99851.94;4917046;29;20028;-82
2021/10/03 09:32:36;;;;;;;0.15;0.15;;;;;;;17.14;39.41;99841.75;4916331;29;20532;-84
2021/10/03 09:35:01;;;;;;;0.25;0.25;;;;;;;17.13;39.87;99835.50;4917030;29;20467;-84
2021/10/03 09:37:29;;;;;;;0.20;0.20;;;;;;;17.12;39.69;99831.22;4916952;29;20058;-85
2021/10/03 09:40:04;;;;;;;0.20;0.20;;;;;;;17.20;39.66;99831.59;4917218;29;20118;-85
2021/10/03 09:42:30;;;;;;;0.43;0.43;;;;;;;17.27;40.00;99823.91;4917302;29;20023;-84
2021/10/03 09:45:13;;;;;;;0.35;0.35;;;;;;;17.30;39.52;99812.50;4917034;29;20027;-84
2021/10/03 09:47:41;;;;;;;0.10;0.10;;;;;;;17.32;39.89;99823.00;4916762;29;20032;-85
2021/10/03 09:50:09;;;;;;;0.10;0.10;;;;;;;17.32;38.86;99813.00;4916995;29;20164;-83
2021/10/03 09:52:36;;;;;;;0.10;0.10;;;;;;;17.33;39.44;99817.28;4916559;29;20030;-85
2021/10/03 09:55:03;;;;;;;0.10;0.10;;;;;;;17.37;39.24;99807.47;4916794;29;20059;-84
2021/10/03 09:57:29;;;;;;;0.22;0.22;;;;;;;17.43;38.93;99805.44;4916479;29;20024;-85
2021/10/03 09:59:56;;;;;;;0.47;0.38;;;;;;;17.41;38.91;99799.56;4916631;29;20498;-83
2021/10/03 10:02:22;;;;;;;0.10;0.10;;;;;;;17.46;39.42;99809.47;4916831;29;20031;-84
2021/10/03 10:04:47;;;;;;;0.10;0.10;;;;;;;17.48;38.90;99797.25;4916963;29;20034;-84
2021/10/03 10:07:16;;;;;;;0.22;0.22;;;;;;;17.49;38.56;99806.16;4916687;29;20028;-84
2021/10/03 10:09:45;;;;;;;4.63;1.85;;;;;;;17.46;38.54;99796.75;4916055;29;20063;-84
2021/10/03 10:12:19;;;;;;;0.10;0.10;;;;;;;17.51;38.76;99791.22;4916586;29;20023;-87
2021/10/03 10:14:47;;;;;;;0.10;0.10;;;;;;;17.56;38.53;99785.69;4916355;29;20027;-84
2021/10/03 10:17:31;;;;;;;0.10;0.10;;;;;;;17.55;38.46;99786.81;4916669;29;20031;-84
2021/10/03 10:19:58;;;;;;;0.10;0.10;;;;;;;17.53;38.54;99775.50;4916591;29;20075;-83
2021/10/03 10:22:34;;;;;;;0.10;0.10;;;;;;;17.52;37.94;99784.72;4916557;29;20027;-83
2021/10/03 10:25:16;;;;;;;0.10;0.10;;;;;;;17.53;37.62;99780.91;4916521;29;20387;-84
2021/10/03 10:27:45;;;;;;;0.20;0.20;;;;;;;17.50;36.68;99778.00;4916406;29;20506;-83
2021/10/03 10:30:14;;;;;;;;;;;;;;;17.53;37.77;99772.78;4917772;29;20118;-86
2021/10/03 10:32:55;;;;;;;0.10;0.10;;;;;;;17.62;38.07;99772.88;4919555;29;19914;-84
2021/10/03 10:35:31;;;;;;;0.17;0.17;;;;;;;17.64;38.26;99773.38;4919924;29;20042;-86
2021/10/03 10:37:56;;;;;;;0.73;0.20;;;;;;;17.70;38.04;99772.16;4919812;29;20123;-83
2021/10/03 10:40:25;;;;;;;0.73;0.65;;;;;;;17.76;38.10;99775.53;4920030;29;20628;-84
2021/10/03 10:42:54;;;;;;;;;;;;;;;17.84;38.30;99765.88;4919954;29;20051;-86
2021/10/03 10:45:43;;;;;;;0.00;0.00;;;;;;;17.91;38.02;99761.63;4919580;29;20005;-85
2021/10/03 10:48:09;;;;;;;0.10;0.10;;;;;;;18.00;38.35;99764.44;4919671;29;20063;-85
2021/10/03 10:50:40;;;;;;;0.85;0.20;;;;;;;18.13;37.97;99757.34;4919453;29;20066;-85
2021/10/03 10:53:25;;;;;;;0.08;0.08;;;;;;;18.26;37.46;99742.16;4919605;29;20027;-85
2021/10/03 10:56:17;;;;;;;0.00;0.00;;;;;;;18.40;37.31;99742.06;4919214;29;20055;-85
2021/10/03 10:58:49;;;;;;;0.43;0.43;;;;;;;18.39;35.16;99754.00;4919196;29;20028;-84
2021/10/03 11:01:15;;;;;;;0.52;0.47;;;;;;;18.33;34.50;99755.25;4919535;29;20118;-83
2021/10/03 11:03:41;;;;;;;0.20;0.20;;;;;;;18.35;35.11;99750.31;4919026;29;20502;-84
2021/10/03 11:06:06;;;;;;;0.10;0.10;;;;;;;18.34;34.93;99746.81;4919368;29;20051;-85
2021/10/03 11:08:32;;;;;;;0.73;0.50;;;;;;;18.39;35.95;99743.97;4919302;29;20467;-86
2021/10/03 11:10:59;;;;;;;0.10;0.10;;;;;;;18.48;35.86;99741.31;4919016;29;20024;-85
2021/10/03 11:13:45;;;;;;;0.40;0.40;;;;;;;18.43;34.75;99746.06;4919281;29;20050;-84
2021/10/03 11:16:31;;;;;;;0.10;0.10;;;;;;;18.38;34.62;99742.38;4919097;29;20590;-84
2021/10/03 11:19:04;;;;;;;0.10;0.10;;;;;;;18.36;34.80;99735.69;4918758;29;20055;-84
2021/10/03 11:21:35;;;;;;;2.08;0.90;;;;;;;18.31;34.46;99728.47;4919019;29;20059;-85
2021/10/03 11:24:03;;;;;;;0.75;0.75;;;;;;;18.29;34.47;99736.09;4919039;29;20040;-86
2021/10/03 11:26:47;;;;;;;0.10;0.10;;;;;;;18.36;34.72;99728.34;4918889;29;20030;-86
2021/10/03 11:29:12;;;;;;;0.00;0.00;;;;;;;18.46;34.79;99721.06;4918905;29;20510;-86
2021/10/03 11:31:47;;;;;;;0.00;0.00;;;;;;;18.57;34.72;99719.66;4918629;29;20031;-86
2021/10/03 11:34:26;;;;;;;0.00;0.00;;;;;;;18.62;33.15;99721.44;4918975;29;20024;-84
2021/10/03 11:36:52;;;;;;;0.25;0.25;;;;;;;18.61;33.54;99709.78;4918603;29;20364;-85
2021/10/03 11:39:32;;;;;;;0.00;0.00;;;;;;;18.68;32.93;99712.06;4918858;29;20205;-85
2021/10/03 11:41:57;;;;;;;0.03;0.03;;;;;;;18.68;33.47;99704.72;4918137;29;20027;-83
2021/10/03 11:44:23;;;;;;;0.05;0.05;;;;;;;18.70;33.94;99704.41;4918728;29;20107;-85
2021/10/03 11:47:05;;;;;;;0.03;0.03;;;;;;;18.72;33.57;99708.41;4918337;29;20026;-86
2021/10/03 11:49:34;;;;;;;0.10;0.10;;;;;;;18.78;33.54;99700.13;4918655;29;20023;-84
2021/10/03 11:52:00;;;;;;;0.20;0.20;;;;;;;18.79;33.38;99702.53;4918259;29;20038;-84
2021/10/03 11:54:47;;;;;;;1.15;0.25;;;;;;;18.82;32.51;99710.03;4918491;29;20530;-85
2021/10/03 11:57:27;;;;;;;0.28;0.28;;;;;;;18.87;32.84;99707.19;4918326;29;20027;-83
2021/10/03 12:00:16;;;;;;;0.10;0.10;;;;;;;18.91;33.08;99707.38;4918038;29;20114;-83
2021/10/03 12:03:02;;;;;;;0.10;0.10;;;;;;;18.97;33.34;99697.97;4917986;29;20498;-83
2021/10/03 12:05:28;;;;;;;0.08;0.08;;;;;;;19.07;33.42;99696.88;4917992;29;20028;-84